CW3322 Weather Reports


time (UTC)temp
C
wind
direction
speed
KPH
gust
KPH
rain 1hr
cm
rain 24hr
cm
rain mn
cm
humidity
%
barometer
mb
20190420061651 15 140 6.4 6.4 0.00 0.00 0.00 51 1023.1
20190420055650 15 140 6.4 6.4 0.00 0.00 0.00 51 1023.1
20190420054650 7 140 6.4 6.4 0.00 0.00 0.00 86 1027.9
20190420052651 6 140 6.4 6.4 0.00 0.00 0.00 87 1028.0
20190420051651 15 140 6.4 6.4 0.00 0.00 0.00 51 1023.1
20190420050650 15 140 6.4 6.4 0.00 0.00 0.00 51 1023.1
20190420045653 15 140 6.4 6.4 0.00 0.00 0.00 51 1023.1
20190420043650 4 140 6.4 6.4 0.00 0.00 0.00 90 1027.1
20190420042651 4 140 6.4 6.4 0.00 0.00 0.00 90 1027.1
20190420041651 15 140 6.4 6.4 0.00 0.00 0.00 51 1023.1
20190420040652 15 140 6.4 6.4 0.00 0.00 0.00 51 1023.1
20190420034651 5 140 6.4 6.4 0.00 0.00 0.00 89 1027.1
20190420033650 5 140 6.4 6.4 0.00 0.00 0.00 88 1028.1
20190420031651 15 140 6.4 6.4 0.00 0.00 0.00 51 1023.1
20190420030651 15 140 6.4 6.4 0.00 0.00 0.00 51 1023.1
20190420025650 15 140 6.4 6.4 0.00 0.00 0.00 51 1023.1
20190420024651 6 140 6.4 6.4 0.00 0.00 0.00 86 1027.0
20190420015651 15 140 6.4 6.4 0.00 0.00 0.00 51 1023.1
20190420014650 6 140 6.4 6.4 0.00 0.00 0.00 86 1026.9
20190420013651 7 140 6.4 6.4 0.00 0.00 0.00 85 1026.9
20190420012651 7 140 6.4 6.4 0.00 0.00 0.00 85 1026.9
20190420010652 15 140 6.4 6.4 0.00 0.00 0.00 51 1023.1
20190420005651 7 140 6.4 6.4 0.00 0.00 0.00 83 1026.9
20190420003651 7 140 6.4 6.4 0.00 0.00 0.00 82 1026.8
20190420002651 7 140 6.4 6.4 0.00 0.00 0.00 81 1026.8
20190420001651 15 140 6.4 6.4 0.00 0.00 0.00 51 1023.1
20190420000658 15 140 6.4 6.4 0.00 0.00 0.00 51 1023.1
20190419235651 15 140 6.4 6.4 0.00 0.00 0.00 51 1023.1
20190419234651 8 140 6.4 6.4 0.00 0.00 0.00 78 1027.8
20190419232651 9 140 6.4 6.4 0.00 0.00 0.00 76 1027.7
20190419231651 15 140 6.4 6.4 0.00 0.00 0.00 51 1023.1
20190419230651 15 140 6.4 6.4 0.00 0.00 0.00 51 1023.1
20190419225651 15 140 6.4 6.4 0.00 0.00 0.00 51 1023.1
20190419224651 10 140 6.4 6.4 0.00 0.00 0.00 73 1027.7
20190419223651 10 140 6.4 6.4 0.00 0.00 0.00 71 1027.6
20190419222651 10 140 6.4 6.4 0.00 0.00 0.00 71 1027.6
20190419214651 12 140 6.4 6.4 0.00 0.00 0.00 63 1027.4
20190419212651 13 140 6.4 6.4 0.00 0.00 0.00 56 1026.3
20190419211651 15 140 6.4 6.4 0.00 0.00 0.00 51 1023.1
20190419210651 15 140 6.4 6.4 0.00 0.00 0.00 51 1023.1
20190419204652 14 140 6.4 6.4 0.00 0.00 0.00 54 1026.2
20190419203651 14 140 6.4 6.4 0.00 0.00 0.00 54 1026.2
20190419201651 15 140 6.4 6.4 0.00 0.00 0.00 51 1023.1
20190419195651 15 140 6.4 6.4 0.00 0.00 0.00 51 1023.1
20190419194651 15 140 6.4 6.4 0.00 0.00 0.00 52 1026.2
20190419193652 15 140 6.4 6.4 0.00 0.00 0.00 50 1026.1
20190419191651 15 140 6.4 6.4 0.00 0.00 0.00 51 1023.1
20190419190651 15 140 6.4 6.4 0.00 0.00 0.00 51 1023.1
20190419184651 17 140 6.4 6.4 0.00 0.00 0.00 41 1024.9
20190419183651 18 140 6.4 6.4 0.00 0.00 0.00 39 1024.9
20190419181651 15 140 6.4 6.4 0.00 0.00 0.00 51 1023.1
20190419180651 15 140 6.4 6.4 0.00 0.00 0.00 51 1023.1
20190419175657 20 140 6.4 6.4 0.00 0.00 0.00 33 1024.7
20190419173651 21 140 6.4 6.4 0.00 0.00 0.00 29 1024.6
20190419172651 21 140 6.4 6.4 0.00 0.00 0.00 30 1024.6
20190419170651 15 140 6.4 6.4 0.00 0.00 0.00 51 1023.1
20190419164652 21 140 6.4 6.4 0.00 0.00 0.00 34 1024.6
20190419162653 22 140 6.4 6.4 0.00 0.00 0.00 29 1024.5
20190419160651 15 140 6.4 6.4 0.00 0.00 0.00 51 1023.1
20190419155653 15 140 6.4 6.4 0.00 0.00 0.00 51 1023.1
20190419153651 25 140 6.4 6.4 0.00 0.00 0.00 28 1024.3
20190419152652 25 140 6.4 6.4 0.00 0.00 0.00 29 1024.3
20190419151651 15 140 6.4 6.4 0.00 0.00 0.00 51 1023.1
20190419143710 28 140 6.4 6.4 0.00 0.00 0.00 28 1024.0
20190419142651 29 140 6.4 6.4 0.00 0.00 0.00 27 1024.0
20190419140651 15 140 6.4 6.4 0.00 0.00 0.00 51 1023.1
20190419134651 29 140 6.4 6.4 0.00 0.00 0.00 29 1024.0
20190419133652 30 140 6.4 6.4 0.00 0.00 0.00 29 1023.9
20190419132651 30 140 6.4 6.4 0.00 0.00 0.00 30 1023.9
20190419130651 15 140 6.4 6.4 0.00 0.00 0.00 51 1023.1
20190419125651 29 140 6.4 6.4 0.00 0.00 0.00 31 1025.0
20190419122652 28 140 6.4 6.4 0.00 0.00 0.00 32 1025.0
20190419115652 15 140 6.4 6.4 0.00 0.00 0.00 51 1023.1
20190419114651 28 140 6.4 6.4 0.00 0.00 0.00 35 1025.1
20190419110652 15 140 6.4 6.4 0.00 0.00 0.00 51 1023.1
20190419105652 26 140 6.4 6.4 0.00 0.00 0.00 35 1025.2
20190419104652 26 140 6.4 6.4 0.00 0.00 0.00 36 1025.2
20190419103652 25 140 6.4 6.4 0.00 0.00 0.00 37 1025.3
20190419100658 15 140 6.4 6.4 0.00 0.00 0.00 51 1023.1
20190419094652 24 140 6.4 6.4 0.00 0.00 0.00 37 1025.4
20190419092652 23 140 6.4 6.4 0.00 0.00 0.00 41 1025.5
20190419091653 15 140 6.4 6.4 0.00 0.00 0.00 51 1023.1
20190419085653 21 140 6.4 6.4 0.00 0.00 0.00 38 1025.6
20190419083652 21 140 6.4 6.4 0.00 0.00 0.00 40 1025.6
20190419081652 15 140 6.4 6.4 0.00 0.00 0.00 51 1023.1
20190419075656 15 140 6.4 6.4 0.00 0.00 0.00 51 1023.1
20190419073652 7 140 6.4 6.4 0.00 0.00 0.00 77 1026.8
20190419072652 7 140 6.4 6.4 0.00 0.00 0.00 77 1026.8
20190419071653 15 140 6.4 6.4 0.00 0.00 0.00 51 1023.1
20190419070652 15 140 6.4 6.4 0.00 0.00 0.00 51 1023.1
20190419065652 15 140 6.4 6.4 0.00 0.00 0.00 51 1023.1